createdAt,value
2019-02-14T00:00:56.265Z,100763.40
2019-02-14T00:04:09.717Z,100768.83
2019-02-14T00:07:23.208Z,100773.63
2019-02-14T00:10:36.998Z,100775.34
2019-02-14T00:13:50.487Z,100772.87
2019-02-14T00:17:04.088Z,100770.08
2019-02-14T00:20:17.570Z,100769.03
2019-02-14T00:23:31.053Z,100768.83
2019-02-14T00:26:44.649Z,100767.38
2019-02-14T00:29:58.133Z,100765.87
2019-02-14T00:33:11.995Z,100756.39
2019-02-14T00:36:25.483Z,100758.81
2019-02-14T00:39:38.973Z,100750.76
2019-02-14T00:42:52.447Z,100755.34
2019-02-14T00:46:06.251Z,100758.06
2019-02-14T00:49:19.832Z,100756.08
2019-02-14T00:52:33.328Z,100761.68
2019-02-14T00:55:46.807Z,100765.09
2019-02-14T00:59:00.559Z,100763.94
2019-02-14T01:02:14.056Z,100762.58
2019-02-14T01:05:33.330Z,100760.66
2019-02-14T01:08:42.936Z,100758.59
2019-02-14T01:11:56.514Z,100751.75
2019-02-14T01:15:10.268Z,100740.55
2019-02-14T01:18:24.209Z,100748.47
2019-02-14T01:21:37.698Z,100752.18
2019-02-14T01:24:51.180Z,100741.95
2019-02-14T01:28:04.779Z,100743.38
2019-02-14T01:31:18.361Z,100746.48
2019-02-14T01:34:31.963Z,100742.36
2019-02-14T01:37:45.883Z,100741.35
2019-02-14T01:40:59.481Z,100748.11
2019-02-14T01:44:13.292Z,100752.68
2019-02-14T01:47:26.783Z,100755.20
2019-02-14T01:50:40.542Z,100756.45
2019-02-14T01:53:54.025Z,100744.73
2019-02-14T01:57:07.828Z,100745.19
2019-02-14T02:00:21.545Z,100744.08
2019-02-14T02:03:35.043Z,100752.73
2019-02-14T02:06:48.806Z,100747.84
2019-02-14T02:10:02.556Z,100744.91
2019-02-14T02:13:16.060Z,100734.55
2019-02-14T02:16:29.955Z,100738.80
2019-02-14T02:19:43.743Z,100735.72
2019-02-14T02:22:57.795Z,100742.92
2019-02-14T02:26:11.377Z,100740.84
2019-02-14T02:29:24.958Z,100740.45
2019-02-14T02:32:38.463Z,100735.27
2019-02-14T02:36:00.172Z,100735.75
2019-02-14T02:39:07.638Z,100726.88
2019-02-14T02:42:21.772Z,100728.19
2019-02-14T02:45:35.568Z,100731.61
2019-02-14T02:48:49.158Z,100735.73
2019-02-14T02:52:02.732Z,100734.59
2019-02-14T02:55:16.420Z,100734.70
2019-02-14T02:58:29.911Z,100740.42
2019-02-14T03:01:43.439Z,100739.43
2019-02-14T03:04:56.902Z,100734.96
2019-02-14T03:08:10.742Z,100736.03
2019-02-14T03:11:24.207Z,100740.17
2019-02-14T03:14:37.700Z,100737.83
2019-02-14T03:17:51.180Z,100746.81
2019-02-14T03:21:04.783Z,100753.27
2019-02-14T03:24:18.267Z,100752.47
2019-02-14T03:27:31.745Z,100746.34
2019-02-14T03:30:45.341Z,100750.58
2019-02-14T03:33:59.124Z,100755.78
2019-02-14T03:37:12.604Z,100748.42
2019-02-14T03:40:26.093Z,100748.42
2019-02-14T03:43:39.570Z,100747.06
2019-02-14T03:46:53.154Z,100754.70
2019-02-14T03:50:07.756Z,100751.47
2019-02-14T03:53:21.758Z,100749.12
2019-02-14T03:56:35.842Z,100760.44
2019-02-14T03:59:49.331Z,100754.52
2019-02-14T04:03:02.910Z,100761.50
2019-02-14T04:06:16.407Z,100765.36
2019-02-14T04:09:30.176Z,100760.71
2019-02-14T04:12:43.911Z,100763.64
2019-02-14T04:15:57.408Z,100766.19
2019-02-14T04:19:10.887Z,100762.06
2019-02-14T04:22:24.375Z,100768.26
2019-02-14T04:25:37.862Z,100764.70
2019-02-14T04:28:51.479Z,100773.00
2019-02-14T04:32:24.628Z,100764.30
2019-02-14T04:35:38.851Z,100761.22
2019-02-14T04:38:52.359Z,100771.66
2019-02-14T04:42:05.856Z,100774.47
2019-02-14T04:45:19.686Z,100772.89
2019-02-14T04:48:33.176Z,100766.91
2019-02-14T04:51:46.647Z,100761.58
2019-02-14T04:55:00.304Z,100762.73
2019-02-14T04:58:13.825Z,100770.16
2019-02-14T05:01:27.310Z,100767.67
2019-02-14T05:04:41.081Z,100768.14
2019-02-14T05:07:54.880Z,100774.24
2019-02-14T05:11:08.371Z,100769.60
2019-02-14T05:14:22.124Z,100775.11
2019-02-14T05:17:35.862Z,100769.64
2019-02-14T05:20:49.358Z,100774.92
2019-02-14T05:24:03.056Z,100776.34
2019-02-14T05:27:16.865Z,100773.48
2019-02-14T05:30:30.455Z,100768.45
2019-02-14T05:33:43.941Z,100775.52
2019-02-14T05:36:57.448Z,100772.75
2019-02-14T05:40:11.550Z,100770.50
2019-02-14T05:43:25.027Z,100782.42
2019-02-14T05:46:38.521Z,100784.86
2019-02-14T05:49:52.012Z,100785.38
2019-02-14T05:53:05.489Z,100789.63
2019-02-14T05:56:18.980Z,100793.66
2019-02-14T05:59:32.453Z,100787.03
2019-02-14T06:02:46.140Z,100789.45
2019-02-14T06:05:59.629Z,100788.24
2019-02-14T06:09:13.422Z,100791.23
2019-02-14T06:12:26.915Z,100800.11
2019-02-14T06:15:40.410Z,100802.06
2019-02-14T06:18:53.881Z,100803.10
2019-02-14T06:22:07.669Z,100801.76
2019-02-14T06:25:21.273Z,100794.78
2019-02-14T06:28:35.101Z,100805.44
2019-02-14T06:31:48.584Z,100800.89
2019-02-14T06:35:02.282Z,100808.91
2019-02-14T06:38:15.827Z,100810.29
2019-02-14T06:41:29.369Z,100817.83
2019-02-14T06:44:42.838Z,100829.57
2019-02-14T06:47:56.323Z,100830.91
2019-02-14T06:51:09.811Z,100836.80
2019-02-14T06:54:23.306Z,100832.25
2019-02-14T06:57:36.779Z,100839.53
2019-02-14T07:00:50.594Z,100843.04
2019-02-14T07:04:04.332Z,100842.95
2019-02-14T07:07:18.903Z,100851.88
2019-02-14T07:10:32.611Z,100850.75
2019-02-14T07:13:46.403Z,100856.47
2019-02-14T07:17:00.240Z,100855.55
2019-02-14T07:20:14.134Z,100850.44
2019-02-14T07:23:27.656Z,100852.30
2019-02-14T07:26:41.448Z,100844.45
2019-02-14T07:29:54.925Z,100853.16
2019-02-14T07:33:08.627Z,100864.08
2019-02-14T07:36:22.154Z,100869.62
2019-02-14T07:39:35.641Z,100875.96
2019-02-14T07:42:49.547Z,100879.18
2019-02-14T07:46:03.201Z,100889.61
2019-02-14T07:49:17.808Z,100886.80
2019-02-14T07:52:32.584Z,100883.72
2019-02-14T07:55:46.338Z,100886.12
2019-02-14T07:59:00.261Z,100879.36
2019-02-14T08:02:13.818Z,100884.69
2019-02-14T08:05:27.580Z,100881.56
2019-02-14T08:08:41.071Z,100884.21
2019-02-14T08:11:54.587Z,100887.92
2019-02-14T08:15:10.366Z,100879.80
2019-02-14T08:18:24.238Z,100876.22
2019-02-14T08:21:38.031Z,100878.39
2019-02-14T08:24:51.923Z,100883.96
2019-02-14T08:28:06.050Z,100878.83
2019-02-14T08:31:22.020Z,100876.56
2019-02-14T08:34:35.814Z,100874.70
2019-02-14T08:37:49.559Z,100886.06
2019-02-14T08:41:03.229Z,100884.06
2019-02-14T08:44:16.719Z,100883.95
2019-02-14T08:47:33.891Z,100883.31
2019-02-14T08:50:48.632Z,100877.60
2019-02-14T08:54:02.228Z,100878.53
2019-02-14T08:57:19.331Z,100881.63
2019-02-14T09:00:33.101Z,100883.88
2019-02-14T09:03:50.633Z,100883.28
2019-02-14T09:07:04.530Z,100881.92
2019-02-14T09:10:18.120Z,100880.45
2019-02-14T09:13:31.892Z,100868.69
2019-02-14T09:16:46.055Z,100863.23
2019-02-14T09:20:00.297Z,100865.45
2019-02-14T09:23:14.713Z,100868.97
2019-02-14T09:26:28.944Z,100876.03
2019-02-14T09:29:42.478Z,100877.12
2019-02-14T09:32:56.003Z,100870.23
2019-02-14T09:36:09.478Z,100862.62
2019-02-14T09:39:22.958Z,100865.81
2019-02-14T09:42:36.739Z,100860.02
2019-02-14T09:45:50.839Z,100858.83
2019-02-14T09:49:04.764Z,100856.88
2019-02-14T09:52:18.240Z,100856.56
2019-02-14T09:55:32.011Z,100846.22
2019-02-14T09:58:45.510Z,100836.87
2019-02-14T10:01:59.450Z,100830.87
2019-02-14T10:05:13.982Z,100827.84
2019-02-14T10:08:27.515Z,100826.77
2019-02-14T10:11:41.114Z,100822.52
2019-02-14T10:14:54.864Z,100814.80
2019-02-14T10:18:08.455Z,100807.53
2019-02-14T10:21:22.466Z,100802.48
2019-02-14T10:24:35.949Z,100789.81
2019-02-14T10:27:50.118Z,100789.20
2019-02-14T10:31:04.496Z,100783.31
2019-02-14T10:34:18.700Z,100781.59
2019-02-14T10:37:32.774Z,100790.80
2019-02-14T10:40:46.327Z,100784.59
2019-02-14T10:44:00.082Z,100779.99
2019-02-14T10:47:13.577Z,100784.39
2019-02-14T10:50:27.053Z,100787.93
2019-02-14T10:53:40.521Z,100784.50
2019-02-14T10:56:54.326Z,100786.47
2019-02-14T11:00:16.337Z,100781.03
2019-02-14T11:03:30.100Z,100785.42
2019-02-14T11:06:44.004Z,100777.88
2019-02-14T11:09:57.475Z,100759.69
2019-02-14T11:13:10.955Z,100759.63
2019-02-14T11:16:24.674Z,100756.61
2019-02-14T11:19:38.516Z,100759.77
2019-02-14T11:22:51.994Z,100756.25
2019-02-14T11:26:05.679Z,100753.75
2019-02-14T11:29:19.458Z,100751.34
2019-02-14T11:32:33.075Z,100747.96
2019-02-14T11:35:47.197Z,100743.03
2019-02-14T11:39:00.791Z,100747.28
2019-02-14T11:42:14.632Z,100743.06
2019-02-14T11:45:28.665Z,100737.70
2019-02-14T11:48:42.148Z,100739.98
2019-02-14T11:51:55.638Z,100741.09
2019-02-14T11:55:09.349Z,100743.17
2019-02-14T11:58:23.147Z,100732.44
2019-02-14T12:01:37.026Z,100732.77
2019-02-14T12:04:51.115Z,100724.66
2019-02-14T12:08:04.877Z,100711.11
2019-02-14T12:11:18.428Z,100706.89
2019-02-14T12:14:33.212Z,100696.61
2019-02-14T12:17:46.868Z,100684.92
2019-02-14T12:21:00.764Z,100682.56
2019-02-14T12:24:14.272Z,100685.15
2019-02-14T12:27:27.774Z,100680.03
2019-02-14T12:31:01.836Z,100677.00
2019-02-14T12:34:15.319Z,100660.86
2019-02-14T12:37:28.810Z,100653.00
2019-02-14T12:40:42.326Z,100647.27
2019-02-14T12:43:55.813Z,100655.04
2019-02-14T12:47:09.737Z,100648.11
2019-02-14T12:50:23.222Z,100651.03
2019-02-14T12:53:36.750Z,100652.07
2019-02-14T12:56:50.409Z,100648.77
2019-02-14T13:00:05.924Z,100649.83
2019-02-14T13:03:19.441Z,100648.19
2019-02-14T13:06:33.251Z,100635.81
2019-02-14T13:09:46.845Z,100637.95
2019-02-14T13:13:00.335Z,100633.09
2019-02-14T13:16:14.018Z,100633.14
2019-02-14T13:19:27.915Z,100626.72
2019-02-14T13:22:41.395Z,100627.75
2019-02-14T13:25:55.243Z,100619.72
2019-02-14T13:29:08.833Z,100610.99
2019-02-14T13:32:22.323Z,100605.18
2019-02-14T13:35:35.816Z,100597.88
2019-02-14T13:38:49.296Z,100594.76
2019-02-14T13:42:03.213Z,100593.24
2019-02-14T13:45:19.441Z,100590.15
2019-02-14T13:48:32.935Z,100593.14
2019-02-14T13:51:46.830Z,100587.91
2019-02-14T13:55:00.343Z,100582.80
2019-02-14T13:58:15.601Z,100576.30
2019-02-14T14:01:29.421Z,100579.09
2019-02-14T14:04:44.768Z,100582.04
2019-02-14T14:07:58.771Z,100574.80
2019-02-14T14:11:12.256Z,100581.52
2019-02-14T14:14:25.745Z,100584.80
2019-02-14T14:17:39.371Z,100582.41
2019-02-14T14:20:52.865Z,100576.91
2019-02-14T14:24:06.389Z,100581.23
2019-02-14T14:27:20.521Z,100587.48
2019-02-14T14:30:35.357Z,100596.08
2019-02-14T14:33:50.301Z,100584.77
2019-02-14T14:37:05.044Z,100582.61
2019-02-14T14:40:20.401Z,100587.22
2019-02-14T14:43:40.002Z,100592.38
2019-02-14T14:47:02.202Z,100595.03
2019-02-14T14:50:15.740Z,100598.72
2019-02-14T14:53:29.456Z,100595.69
2019-02-14T14:56:43.331Z,100592.52
2019-02-14T14:59:56.882Z,100597.15
2019-02-14T15:03:10.362Z,100601.73
2019-02-14T15:06:24.083Z,100592.00
2019-02-14T15:09:37.673Z,100584.10
2019-02-14T15:12:51.259Z,100587.02
2019-02-14T15:16:05.332Z,100587.75
2019-02-14T15:19:19.261Z,100591.72
2019-02-14T15:22:33.343Z,100583.72
2019-02-14T15:25:47.164Z,100587.08
2019-02-14T15:29:00.752Z,100587.38
2019-02-14T15:32:14.574Z,100590.44
2019-02-14T15:35:28.161Z,100591.56
2019-02-14T15:38:46.580Z,100586.11
2019-02-14T15:42:00.211Z,100583.11
2019-02-14T15:45:14.047Z,100580.97
2019-02-14T15:48:28.404Z,100581.31
2019-02-14T15:51:43.805Z,100589.09
2019-02-14T15:54:58.196Z,100586.79
2019-02-14T15:58:12.976Z,100598.03
2019-02-14T16:01:26.748Z,100592.76
2019-02-14T16:04:40.230Z,100587.84
2019-02-14T16:07:55.233Z,100592.95
2019-02-14T16:11:10.155Z,100596.98
2019-02-14T16:14:24.413Z,100595.15
2019-02-14T16:17:37.900Z,100602.25
2019-02-14T16:20:51.472Z,100600.28
2019-02-14T16:24:05.266Z,100598.44
2019-02-14T16:27:19.159Z,100599.90
2019-02-14T16:30:33.396Z,100602.44
2019-02-14T16:33:47.221Z,100603.48
2019-02-14T16:37:00.810Z,100607.12
2019-02-14T16:40:14.544Z,100607.75
2019-02-14T16:43:28.414Z,100607.84
2019-02-14T16:46:42.175Z,100623.97
2019-02-14T16:49:55.955Z,100622.42
2019-02-14T16:53:09.433Z,100624.52
2019-02-14T16:56:23.004Z,100641.72
2019-02-14T16:59:36.489Z,100645.97
2019-02-14T17:02:49.959Z,100642.52
2019-02-14T17:06:04.138Z,100638.38
2019-02-14T17:09:17.623Z,100646.55
2019-02-14T17:12:31.102Z,100651.66
2019-02-14T17:15:44.588Z,100651.20
2019-02-14T17:18:58.083Z,100666.70
2019-02-14T17:22:11.821Z,100674.08
2019-02-14T17:25:25.903Z,100668.09
2019-02-14T17:28:39.424Z,100672.27
2019-02-14T17:31:53.176Z,100673.56
2019-02-14T17:35:07.094Z,100670.97
2019-02-14T17:38:20.581Z,100669.89
2019-02-14T17:41:35.186Z,100680.34
2019-02-14T17:44:48.681Z,100679.61
2019-02-14T17:48:02.574Z,100681.91
2019-02-14T17:51:16.233Z,100681.39
2019-02-14T17:54:29.704Z,100680.69
2019-02-14T17:57:43.291Z,100682.96
2019-02-14T18:00:56.764Z,100676.08
2019-02-14T18:04:10.246Z,100675.72
2019-02-14T18:07:24.409Z,100678.48
2019-02-14T18:10:38.003Z,100684.19
2019-02-14T18:13:52.368Z,100684.69
2019-02-14T18:17:06.181Z,100688.27
2019-02-14T18:20:20.344Z,100688.81
2019-02-14T18:23:33.832Z,100699.42
2019-02-14T18:26:47.432Z,100697.87
2019-02-14T18:30:01.189Z,100689.86
2019-02-14T18:33:15.073Z,100683.89
2019-02-14T18:36:28.940Z,100684.94
2019-02-14T18:39:42.533Z,100688.97
2019-02-14T18:42:56.356Z,100690.27
2019-02-14T18:46:09.837Z,100693.90
2019-02-14T18:49:23.408Z,100696.20
2019-02-14T18:52:37.007Z,100695.48
2019-02-14T18:55:50.495Z,100700.34
2019-02-14T18:59:04.066Z,100699.02
2019-02-14T19:02:17.541Z,100695.53
2019-02-14T19:05:31.088Z,100689.36
2019-02-14T19:08:44.774Z,100688.94
2019-02-14T19:11:58.418Z,100685.98
2019-02-14T19:15:12.109Z,100683.52
2019-02-14T19:18:25.715Z,100680.86
2019-02-14T19:21:40.926Z,100683.34
2019-02-14T19:24:54.858Z,100680.22
2019-02-14T19:28:09.449Z,100682.69
2019-02-14T19:31:23.265Z,100684.75
2019-02-14T19:34:37.111Z,100678.41
2019-02-14T19:37:50.686Z,100686.84
2019-02-14T19:41:04.575Z,100689.44
2019-02-14T19:44:18.124Z,100684.44
2019-02-14T19:47:31.698Z,100675.23
2019-02-14T19:50:45.332Z,100674.27
2019-02-14T19:53:59.132Z,100665.39
2019-02-14T19:57:12.608Z,100666.30
2019-02-14T20:00:26.129Z,100671.16
2019-02-14T20:03:40.397Z,100667.49
2019-02-14T20:06:53.866Z,100660.81
2019-02-14T20:10:08.744Z,100663.10
2019-02-14T20:13:22.218Z,100666.16
2019-02-14T20:16:36.654Z,100663.11
2019-02-14T20:19:50.601Z,100662.88
2019-02-14T20:23:04.598Z,100670.33
2019-02-14T20:26:18.100Z,100666.98
2019-02-14T20:29:32.096Z,100671.48
2019-02-14T20:32:45.734Z,100668.48
2019-02-14T20:35:59.305Z,100671.67
2019-02-14T20:39:13.129Z,100671.44
2019-02-14T20:42:26.720Z,100674.52
2019-02-14T20:45:40.685Z,100675.30
2019-02-14T20:48:54.435Z,100663.34
2019-02-14T20:52:07.920Z,100672.66
2019-02-14T20:55:23.074Z,100667.84
2019-02-14T20:58:36.674Z,100662.79
2019-02-14T21:01:50.165Z,100668.52
2019-02-14T21:05:04.303Z,100661.70
2019-02-14T21:08:17.786Z,100652.66
2019-02-14T21:11:31.492Z,100657.14
2019-02-14T21:14:45.082Z,100661.03
2019-02-14T21:17:58.629Z,100664.92
2019-02-14T21:21:12.141Z,100667.70
2019-02-14T21:24:25.680Z,100675.05
2019-02-14T21:27:39.240Z,100674.59
2019-02-14T21:30:52.878Z,100673.45
2019-02-14T21:34:06.858Z,100672.28
2019-02-14T21:37:20.440Z,100679.98
2019-02-14T21:40:34.203Z,100675.97
2019-02-14T21:43:47.731Z,100679.17
2019-02-14T21:47:01.982Z,100684.58
2019-02-14T21:50:15.680Z,100681.24
2019-02-14T21:53:29.276Z,100670.70
2019-02-14T21:56:43.395Z,100679.27
2019-02-14T21:59:56.887Z,100682.39
2019-02-14T22:03:10.475Z,100680.91
2019-02-14T22:06:24.330Z,100678.39
2019-02-14T22:09:37.808Z,100668.53
2019-02-14T22:12:51.420Z,100665.33
2019-02-14T22:16:07.674Z,100667.39
2019-02-14T22:19:21.192Z,100674.14
2019-02-14T22:22:34.777Z,100675.75
2019-02-14T22:25:48.400Z,100675.30
2019-02-14T22:29:02.196Z,100673.48
2019-02-14T22:32:15.689Z,100671.40
2019-02-14T22:35:29.182Z,100662.33
2019-02-14T22:38:43.837Z,100664.41
2019-02-14T22:41:57.327Z,100661.55
2019-02-14T22:45:11.143Z,100662.00
2019-02-14T22:48:24.874Z,100659.36
2019-02-14T22:51:38.683Z,100665.66
2019-02-14T22:54:52.268Z,100664.63
2019-02-14T22:58:05.767Z,100665.31
2019-02-14T23:01:19.566Z,100664.05
2019-02-14T23:04:33.038Z,100665.55
2019-02-14T23:07:46.878Z,100655.91
2019-02-14T23:11:00.375Z,100654.34
2019-02-14T23:14:13.849Z,100665.09
2019-02-14T23:17:27.327Z,100658.31
2019-02-14T23:20:40.941Z,100661.09
2019-02-14T23:23:54.411Z,100656.72
2019-02-14T23:27:08.004Z,100660.83
2019-02-14T23:30:21.484Z,100662.91
2019-02-14T23:33:34.971Z,100663.84
2019-02-14T23:36:48.679Z,100667.95
2019-02-14T23:40:02.382Z,100668.66
2019-02-14T23:43:15.878Z,100665.08
2019-02-14T23:46:29.366Z,100664.72
2019-02-14T23:49:43.356Z,100668.28
2019-02-14T23:52:56.848Z,100660.72
2019-02-14T23:56:10.346Z,100665.66
2019-02-14T23:59:23.820Z,100662.12
